Terminal Aerodrome Forecast
Issued by NWS Lake Charles, LA

Home | Current Version | Previous Version | Text Only | Print | Product List | Glossary On
Versions: 1 2 3 4 5 6 7 8 9 10 11 12 13 14 15 16
000
FTUS44 KLCH 221727 AAA
TAFAEX
TAF AMD
KAEX 221727Z 2217/2318 31011KT P6SM BKN011 OVC020
      TEMPO 2218/2222 5SM BR OVC009
     FM222200 31014G20KT P6SM SCT019 BKN027
     FM230100 31007KT P6SM SCT250
     FM230400 30005KT P6SM SKC=

USA.gov is the U.S. government's official web portal to all federal, state and local government web resources and services.